createdAt,value
2022-09-02T00:01:59.640Z,9.75
2022-09-02T00:04:29.092Z,9.70
2022-09-02T00:06:58.571Z,9.67
2022-09-02T00:09:28.615Z,9.65
2022-09-02T00:11:58.710Z,9.62
2022-09-02T00:14:33.668Z,9.60
2022-09-02T00:17:03.657Z,9.58
2022-09-02T00:19:33.376Z,9.55
2022-09-02T00:22:04.584Z,9.54
2022-09-02T00:24:34.439Z,9.50
2022-09-02T00:27:04.025Z,9.49
2022-09-02T00:29:35.253Z,9.46
2022-09-02T00:32:05.902Z,9.44
2022-09-02T00:34:35.505Z,9.42
2022-09-02T00:37:05.146Z,9.38
2022-09-02T00:39:35.034Z,9.36
2022-09-02T00:42:06.864Z,9.33
2022-09-02T00:44:37.862Z,9.32
2022-09-02T00:47:07.493Z,9.29
2022-09-02T00:49:40.996Z,9.27
2022-09-02T00:52:15.171Z,9.24
2022-09-02T00:54:53.978Z,9.24
2022-09-02T00:57:30.409Z,9.22
2022-09-02T01:00:11.501Z,9.23
2022-09-02T01:02:43.209Z,9.20
2022-09-02T01:05:18.028Z,9.18
2022-09-02T01:07:48.004Z,9.18
2022-09-02T01:10:22.432Z,9.15
2022-09-02T01:12:57.951Z,9.14
2022-09-02T01:15:30.251Z,9.15
2022-09-02T01:18:00.373Z,9.12
2022-09-02T01:20:30.396Z,9.10
2022-09-02T01:23:02.464Z,9.10
2022-09-02T01:25:36.156Z,9.10
2022-09-02T01:28:10.659Z,9.09
2022-09-02T01:30:46.961Z,9.08
2022-09-02T01:33:17.915Z,9.09
2022-09-02T01:35:48.682Z,9.07
2022-09-02T01:38:20.693Z,9.09
2022-09-02T01:40:52.623Z,9.09
2022-09-02T01:43:27.299Z,9.10
2022-09-02T01:45:59.517Z,9.13
2022-09-02T01:48:31.909Z,9.16
2022-09-02T01:51:05.840Z,9.21
2022-09-02T01:53:36.916Z,9.24
2022-09-02T01:56:08.519Z,9.25
2022-09-02T01:58:38.081Z,9.27
2022-09-02T02:01:09.141Z,9.24
2022-09-02T02:03:41.536Z,9.23
2022-09-02T02:06:14.832Z,9.20
2022-09-02T02:08:46.443Z,9.16
2022-09-02T02:11:22.043Z,9.13
2022-09-02T02:13:55.059Z,9.11
2022-09-02T02:16:25.030Z,9.07
2022-09-02T02:18:54.654Z,9.03
2022-09-02T02:21:24.142Z,9.02
2022-09-02T02:23:55.740Z,8.98
2022-09-02T02:26:25.282Z,8.95
2022-09-02T02:28:55.086Z,8.89
2022-09-02T02:31:25.137Z,8.84
2022-09-02T02:33:55.050Z,8.80
2022-09-02T02:36:24.931Z,8.75
2022-09-02T02:38:56.405Z,8.73
2022-09-02T02:41:26.771Z,8.70
2022-09-02T02:43:57.081Z,8.70
2022-09-02T02:46:27.040Z,8.66
2022-09-02T02:48:56.613Z,8.65
2022-09-02T02:51:26.297Z,8.62
2022-09-02T02:53:59.013Z,8.57
2022-09-02T02:56:30.427Z,8.53
2022-09-02T02:59:03.425Z,8.54
2022-09-02T03:01:35.236Z,8.52
2022-09-02T03:04:06.976Z,8.48
2022-09-02T03:06:36.780Z,8.45
2022-09-02T03:09:07.874Z,8.42
2022-09-02T03:11:39.619Z,8.38
2022-09-02T03:14:10.221Z,8.35
2022-09-02T03:16:41.143Z,8.32
2022-09-02T03:19:13.993Z,8.28
2022-09-02T03:21:44.296Z,8.24
2022-09-02T03:24:15.905Z,8.21
2022-09-02T03:26:45.574Z,8.18
2022-09-02T03:29:15.581Z,8.12
2022-09-02T03:31:46.497Z,8.08
2022-09-02T03:34:16.472Z,8.03
2022-09-02T03:36:46.004Z,8.01
2022-09-02T03:39:18.022Z,7.98
2022-09-02T03:41:50.261Z,7.92
2022-09-02T03:44:19.993Z,7.90
2022-09-02T03:46:49.572Z,7.87
2022-09-02T03:49:19.263Z,7.84
2022-09-02T03:51:49.087Z,7.81
2022-09-02T03:54:20.389Z,7.78
2022-09-02T03:56:50.152Z,7.74
2022-09-02T03:59:21.179Z,7.72
2022-09-02T04:01:51.784Z,7.70
2022-09-02T04:04:23.076Z,7.68
2022-09-02T04:06:54.570Z,7.65
2022-09-02T04:09:25.981Z,7.63
2022-09-02T04:11:55.822Z,7.61
2022-09-02T04:14:26.688Z,7.60
2022-09-02T04:16:57.201Z,7.60
2022-09-02T04:19:26.981Z,7.57
2022-09-02T04:21:56.577Z,7.56
2022-09-02T04:24:28.310Z,7.56
2022-09-02T04:27:03.336Z,7.53
2022-09-02T04:29:35.874Z,7.52
2022-09-02T04:32:06.101Z,7.50
2022-09-02T04:34:35.736Z,7.48
2022-09-02T04:37:06.006Z,7.47
2022-09-02T04:39:37.018Z,7.48
2022-09-02T04:42:07.288Z,7.48
2022-09-02T04:44:38.325Z,7.49
2022-09-02T04:47:08.651Z,7.49
2022-09-02T04:49:38.377Z,7.48
2022-09-02T04:52:08.849Z,7.48
2022-09-02T04:54:42.412Z,7.50
2022-09-02T04:57:11.936Z,7.53
2022-09-02T04:59:42.486Z,7.54
2022-09-02T05:02:15.062Z,7.58
2022-09-02T05:04:44.687Z,7.64
2022-09-02T05:07:23.262Z,7.73
2022-09-02T05:09:58.617Z,7.84
2022-09-02T05:12:28.979Z,7.95
2022-09-02T05:15:02.214Z,8.08
2022-09-02T05:17:35.605Z,8.19
2022-09-02T05:20:10.011Z,8.30
2022-09-02T05:22:41.212Z,8.39
2022-09-02T05:25:13.110Z,8.50
2022-09-02T05:27:42.684Z,8.60
2022-09-02T05:30:14.377Z,8.71
2022-09-02T05:32:43.900Z,8.80
2022-09-02T05:35:13.536Z,8.91
2022-09-02T05:37:43.262Z,9.00
2022-09-02T05:40:14.889Z,9.11
2022-09-02T05:42:45.573Z,9.19
2022-09-02T05:45:19.396Z,9.32
2022-09-02T05:47:50.672Z,9.41
2022-09-02T05:50:20.670Z,9.50
2022-09-02T05:52:53.013Z,9.61
2022-09-02T05:55:25.696Z,9.70
2022-09-02T05:57:55.325Z,9.77
2022-09-02T06:00:26.086Z,9.86
2022-09-02T06:03:01.938Z,9.94
2022-09-02T06:05:38.353Z,10.02
2022-09-02T06:08:15.774Z,10.09
2022-09-02T06:10:46.769Z,10.18
2022-09-02T06:13:22.836Z,10.28
2022-09-02T06:15:55.643Z,10.36
2022-09-02T06:18:28.536Z,10.44
2022-09-02T06:21:01.705Z,10.52
2022-09-02T06:23:39.088Z,10.64
2022-09-02T06:26:14.513Z,10.73
2022-09-02T06:28:44.472Z,10.83
2022-09-02T06:31:17.455Z,10.92
2022-09-02T06:33:49.505Z,11.02
2022-09-02T06:36:22.353Z,11.11
2022-09-02T06:39:00.989Z,11.24
2022-09-02T06:41:35.995Z,11.33
2022-09-02T06:44:12.586Z,11.43
2022-09-02T06:46:55.312Z,11.51
2022-09-02T06:49:28.031Z,11.63
2022-09-02T06:51:59.731Z,11.71
2022-09-02T06:54:34.054Z,11.82
2022-09-02T06:57:14.532Z,11.93
2022-09-02T06:59:44.740Z,12.03
2022-09-02T07:05:02.903Z,12.28
2022-09-02T07:07:32.635Z,12.39
2022-09-02T07:10:15.060Z,12.49
2022-09-02T07:12:49.955Z,12.60
2022-09-02T07:15:20.700Z,12.71
2022-09-02T07:17:50.658Z,12.82
2022-09-02T07:20:28.853Z,12.94
2022-09-02T07:23:04.811Z,13.04
2022-09-02T07:25:36.609Z,13.14
2022-09-02T07:28:07.777Z,13.26
2022-09-02T07:30:42.238Z,13.38
2022-09-02T07:33:17.694Z,13.50
2022-09-02T07:35:54.014Z,13.63
2022-09-02T07:38:24.977Z,13.74
2022-09-02T07:40:57.011Z,13.87
2022-09-02T07:43:32.032Z,14.04
2022-09-02T07:46:03.660Z,14.16
2022-09-02T07:48:36.862Z,14.28
2022-09-02T07:51:08.158Z,14.42
2022-09-02T07:53:41.018Z,14.54
2022-09-02T07:56:11.005Z,14.66
2022-09-02T07:58:42.907Z,14.77
2022-09-02T08:01:29.303Z,14.89
2022-09-02T08:04:01.551Z,15.00
2022-09-02T08:07:09.159Z,15.14
2022-09-02T08:09:40.154Z,15.22
2022-09-02T08:12:09.953Z,15.34
2022-09-02T08:14:41.033Z,15.45
2022-09-02T08:17:11.048Z,15.58
2022-09-02T08:20:48.390Z,15.74
2022-09-02T08:23:35.568Z,15.87
2022-09-02T08:26:08.251Z,16.00
2022-09-02T08:28:39.441Z,16.15
2022-09-02T08:31:10.826Z,16.26
2022-09-02T08:33:40.488Z,16.39
2022-09-02T08:36:14.552Z,16.55
2022-09-02T08:38:44.596Z,16.72
2022-09-02T08:41:22.205Z,16.84
2022-09-02T08:43:56.351Z,16.98
2022-09-02T08:46:30.116Z,17.12
2022-09-02T08:49:03.988Z,17.25
2022-09-02T08:51:53.156Z,17.35
2022-09-02T08:54:33.916Z,17.50
2022-09-02T08:57:03.764Z,17.61
2022-09-02T08:59:33.618Z,17.75
2022-09-02T09:02:20.496Z,17.86
2022-09-02T09:05:18.264Z,18.02
2022-09-02T09:08:04.839Z,18.20
2022-09-02T09:10:47.282Z,18.30
2022-09-02T09:13:52.069Z,18.48
2022-09-02T09:16:41.570Z,18.64
2022-09-02T09:19:16.959Z,18.80
2022-09-02T09:21:46.728Z,18.93
2022-09-02T09:24:28.302Z,19.09
2022-09-02T09:26:59.576Z,19.18
2022-09-02T09:29:33.395Z,19.32
2022-09-02T09:32:04.140Z,19.45
2022-09-02T09:35:03.242Z,19.57
2022-09-02T09:37:37.750Z,19.70
2022-09-02T09:40:28.827Z,19.81
2022-09-02T09:43:22.747Z,19.88
2022-09-02T09:45:54.319Z,20.01
2022-09-02T09:48:30.812Z,20.09
2022-09-02T09:51:18.809Z,20.19
2022-09-02T09:53:48.857Z,20.30
2022-09-02T09:56:37.544Z,20.46
2022-09-02T09:59:41.318Z,20.60
2022-09-02T10:02:24.353Z,20.64
2022-09-02T10:04:55.642Z,20.73
2022-09-02T10:07:45.024Z,20.87
2022-09-02T10:10:22.537Z,20.97
2022-09-02T10:12:56.902Z,21.06
2022-09-02T10:15:38.735Z,20.95
2022-09-02T10:18:21.894Z,21.08
2022-09-02T10:21:16.291Z,21.20
2022-09-02T10:23:55.573Z,21.30
2022-09-02T10:26:39.814Z,21.40
2022-09-02T10:29:39.528Z,21.39
2022-09-02T10:32:32.817Z,21.41
2022-09-02T10:35:12.924Z,21.31
2022-09-02T10:38:00.421Z,21.31
2022-09-02T10:40:37.608Z,21.44
2022-09-02T10:43:09.454Z,21.54
2022-09-02T10:45:47.848Z,21.54
2022-09-02T10:48:31.330Z,21.57
2022-09-02T10:51:06.921Z,21.72
2022-09-02T10:54:11.349Z,21.89
2022-09-02T10:56:50.620Z,22.08
2022-09-02T10:59:24.654Z,22.27
2022-09-02T11:01:58.431Z,22.31
2022-09-02T11:04:38.884Z,22.49
2022-09-02T11:07:11.033Z,22.48
2022-09-02T11:09:44.925Z,22.68
2022-09-02T11:12:19.741Z,22.75
2022-09-02T11:15:00.246Z,22.83
2022-09-02T11:17:36.314Z,23.04
2022-09-02T11:20:14.134Z,23.15
2022-09-02T11:22:54.316Z,23.30
2022-09-02T11:25:26.675Z,23.46
2022-09-02T11:28:05.199Z,23.60
2022-09-02T11:30:44.914Z,23.72
2022-09-02T11:33:19.918Z,23.89
2022-09-02T11:35:50.861Z,24.08
2022-09-02T11:38:36.111Z,24.17
2022-09-02T11:41:37.084Z,24.39
2022-09-02T11:44:29.400Z,24.57
2022-09-02T11:47:15.474Z,24.72
2022-09-02T11:50:11.129Z,24.80
2022-09-02T11:52:58.024Z,24.93
2022-09-02T11:55:33.786Z,25.09
2022-09-02T11:58:03.775Z,25.15
2022-09-02T12:00:36.961Z,25.18
2022-09-02T12:03:40.831Z,25.24
2022-09-02T12:06:13.720Z,25.37
2022-09-02T12:09:11.819Z,25.59
2022-09-02T12:11:49.438Z,25.66
2022-09-02T12:15:11.589Z,25.84
2022-09-02T12:18:10.605Z,26.01
2022-09-02T12:21:19.871Z,26.18
2022-09-02T12:27:22.586Z,26.32
2022-09-02T12:29:52.449Z,26.48
2022-09-02T12:33:09.670Z,26.43
2022-09-02T12:35:57.557Z,26.55
2022-09-02T12:38:40.544Z,26.43
2022-09-02T12:41:30.118Z,26.38
2022-09-02T12:44:30.592Z,26.77
2022-09-02T12:47:07.354Z,26.82
2022-09-02T12:49:50.365Z,27.08
2022-09-02T12:52:44.305Z,27.22
2022-09-02T12:55:23.996Z,27.39
2022-09-02T12:58:07.743Z,27.42
2022-09-02T13:00:47.925Z,27.68
2022-09-02T13:03:38.015Z,27.79
2022-09-02T14:01:37.779Z,30.19
2022-09-02T14:04:14.291Z,30.26
2022-09-02T14:06:47.809Z,30.45
2022-09-02T14:09:22.457Z,30.61
2022-09-02T14:11:52.955Z,30.78
2022-09-02T14:14:25.196Z,30.85
2022-09-02T14:17:21.417Z,30.91
2022-09-02T14:21:25.306Z,31.01
2022-09-02T14:37:00.258Z,30.85
2022-09-02T14:42:18.179Z,30.90
2022-09-02T14:44:48.320Z,30.97
2022-09-02T14:47:20.750Z,31.13
2022-09-02T14:49:55.436Z,31.00
2022-09-02T14:52:27.835Z,30.74
2022-09-02T14:56:04.005Z,30.45
2022-09-02T15:03:47.126Z,30.33
2022-09-02T15:06:28.513Z,30.26
2022-09-02T15:08:57.887Z,30.18
2022-09-02T15:11:27.404Z,30.17
2022-09-02T15:13:56.805Z,30.22
2022-09-02T15:16:27.051Z,30.25
2022-09-02T15:18:57.653Z,30.15
2022-09-02T15:21:29.466Z,29.93
2022-09-02T15:23:58.812Z,29.69
2022-09-02T15:26:29.018Z,29.38
2022-09-02T15:28:58.979Z,29.07
2022-09-02T15:31:28.491Z,28.74
2022-09-02T15:33:58.920Z,28.38
2022-09-02T15:36:31.336Z,28.18
2022-09-02T15:39:01.104Z,28.03
2022-09-02T15:41:31.668Z,27.87
2022-09-02T15:44:01.150Z,27.40
2022-09-02T15:46:33.838Z,27.20
2022-09-02T15:49:06.003Z,27.04
2022-09-02T16:18:06.077Z,23.67
2022-09-02T16:20:35.406Z,23.45
2022-09-02T16:23:04.878Z,23.22
2022-09-02T16:25:34.355Z,22.92
2022-09-02T16:28:04.428Z,22.74
2022-09-02T16:30:34.897Z,22.53
2022-09-02T16:33:06.214Z,22.36
2022-09-02T16:35:35.641Z,22.22
2022-09-02T16:38:05.242Z,22.05
2022-09-02T16:40:36.037Z,21.85
2022-09-02T16:43:05.488Z,21.70
2022-09-02T16:45:35.830Z,21.57
2022-09-02T16:48:06.564Z,21.41
2022-09-02T16:50:36.956Z,21.30
2022-09-02T16:53:06.261Z,21.15
2022-09-02T16:55:41.412Z,21.06
2022-09-02T16:58:11.693Z,20.92
2022-09-02T17:00:46.021Z,20.77
2022-09-02T17:03:17.044Z,20.69
2022-09-02T17:05:48.204Z,20.51
2022-09-02T17:08:18.607Z,20.41
2022-09-02T17:10:48.196Z,20.29
2022-09-02T17:13:17.599Z,20.19
2022-09-02T17:15:47.211Z,20.08
2022-09-02T17:18:18.081Z,19.96
2022-09-02T17:20:47.424Z,19.85
2022-09-02T17:23:16.992Z,19.77
2022-09-02T17:25:47.591Z,19.68
2022-09-02T17:28:17.023Z,19.58
2022-09-02T17:30:46.559Z,19.49
2022-09-02T17:33:18.539Z,19.37
2022-09-02T17:35:56.876Z,19.24
2022-09-02T17:38:27.337Z,19.15
2022-09-02T17:41:14.512Z,19.01
2022-09-02T17:43:44.324Z,18.86
2022-09-02T17:46:14.023Z,18.76
2022-09-02T17:49:12.828Z,18.63
2022-09-02T17:51:35.683Z,18.53
2022-09-02T17:54:32.220Z,18.48
2022-09-02T17:57:11.111Z,18.39
2022-09-02T17:59:59.159Z,18.26
2022-09-02T18:02:57.101Z,18.06
2022-09-02T18:05:32.703Z,17.96
2022-09-02T18:08:08.806Z,17.79
2022-09-02T18:10:41.991Z,17.59
2022-09-02T18:13:14.699Z,17.42
2022-09-02T18:16:05.306Z,17.22
2022-09-02T18:18:36.604Z,17.00
2022-09-02T18:21:14.912Z,16.76
2022-09-02T18:24:01.007Z,16.55
2022-09-02T18:26:47.823Z,16.32
2022-09-02T18:29:41.186Z,16.13
2022-09-02T18:32:21.337Z,15.93
2022-09-02T18:35:02.147Z,15.75
2022-09-02T18:37:46.391Z,15.58
2022-09-02T18:40:29.347Z,15.38
2022-09-02T18:43:12.904Z,15.22
2022-09-02T18:45:49.362Z,15.06
2022-09-02T18:48:21.341Z,14.94
2022-09-02T18:50:56.179Z,14.86
2022-09-02T18:53:31.428Z,14.74
2022-09-02T18:56:09.250Z,14.64
2022-09-02T18:58:43.806Z,14.53
2022-09-02T19:01:22.378Z,14.43
2022-09-02T19:03:52.065Z,14.35
2022-09-02T19:06:23.792Z,14.28
2022-09-02T19:08:58.513Z,14.25
2022-09-02T19:11:28.823Z,14.18
2022-09-02T19:14:09.305Z,14.09
2022-09-02T19:16:39.982Z,14.00
2022-09-02T19:19:38.770Z,13.90
2022-09-02T19:22:11.509Z,13.76
2022-09-02T19:24:45.599Z,13.68
2022-09-02T19:27:19.421Z,13.61
2022-09-02T19:29:53.324Z,13.52
2022-09-02T19:32:28.056Z,13.49
2022-09-02T19:34:57.879Z,13.45
2022-09-02T19:37:27.401Z,13.40
2022-09-02T19:40:11.762Z,13.34
2022-09-02T19:42:42.502Z,13.30
2022-09-02T19:45:39.087Z,13.26
2022-09-02T19:48:11.357Z,13.19
2022-09-02T19:50:47.593Z,13.09
2022-09-02T19:53:25.807Z,13.02
2022-09-02T19:55:56.601Z,12.94
2022-09-02T19:58:26.968Z,12.87
2022-09-02T20:00:57.112Z,12.82
2022-09-02T20:03:26.824Z,12.80
2022-09-02T20:05:56.223Z,12.77
2022-09-02T20:08:31.148Z,12.71
2022-09-02T20:11:05.012Z,12.66
2022-09-02T20:13:40.702Z,12.60
2022-09-02T20:16:20.371Z,12.56
2022-09-02T20:18:51.125Z,12.52
2022-09-02T20:21:28.172Z,12.47
2022-09-02T20:24:00.542Z,12.44
2022-09-02T20:26:59.129Z,12.43
2022-09-02T20:29:50.723Z,12.34
2022-09-02T20:32:48.006Z,12.27
2022-09-02T20:35:34.100Z,12.24
2022-09-02T20:38:23.175Z,12.18
2022-09-02T20:41:00.099Z,12.10
2022-09-02T20:44:03.506Z,12.09
2022-09-02T20:46:52.446Z,12.07
2022-09-02T20:49:43.607Z,12.03
2022-09-02T20:52:20.323Z,11.97
2022-09-02T20:54:56.327Z,11.97
2022-09-02T20:57:36.869Z,11.92
2022-09-02T21:00:12.184Z,11.92
2022-09-02T21:02:49.864Z,11.92
2022-09-02T21:05:24.006Z,11.88
2022-09-02T21:08:01.429Z,11.85
2022-09-02T21:10:34.701Z,11.82
2022-09-02T21:13:11.797Z,11.78
2022-09-02T21:15:47.636Z,11.75
2022-09-02T21:18:23.486Z,11.74
2022-09-02T21:21:00.137Z,11.72
2022-09-02T21:23:58.801Z,11.70
2022-09-02T21:26:40.597Z,11.65
2022-09-02T21:29:16.758Z,11.62
2022-09-02T21:31:55.161Z,11.59
2022-09-02T21:34:28.696Z,11.59
2022-09-02T21:36:59.306Z,11.56
2022-09-02T21:39:37.834Z,11.50
2022-09-02T21:42:21.109Z,11.49
2022-09-02T21:45:07.077Z,11.48
2022-09-02T21:47:44.370Z,11.48
2022-09-02T21:50:24.492Z,11.48
2022-09-02T21:53:12.689Z,11.48
2022-09-02T21:55:59.314Z,11.46
2022-09-02T21:58:50.235Z,11.48
2022-09-02T22:01:35.426Z,11.49
2022-09-02T22:04:12.467Z,11.49
2022-09-02T22:06:46.083Z,11.52
2022-09-02T22:09:20.702Z,11.54
2022-09-02T22:11:57.331Z,11.57
2022-09-02T22:14:33.527Z,11.60
2022-09-02T22:17:06.924Z,11.61
2022-09-02T22:19:40.441Z,11.63
2022-09-02T22:22:14.636Z,11.64
2022-09-02T22:24:49.618Z,11.69
2022-09-02T22:27:32.855Z,11.69
2022-09-02T22:30:07.520Z,11.72
2022-09-02T22:32:42.038Z,11.74
2022-09-02T22:35:25.234Z,11.74
2022-09-02T22:38:02.564Z,11.82
2022-09-02T22:40:37.756Z,11.88
2022-09-02T22:43:12.551Z,11.89
2022-09-02T22:46:04.865Z,11.94
2022-09-02T22:48:55.635Z,11.96
2022-09-02T22:51:49.423Z,12.01
2022-09-02T22:54:19.090Z,12.06
2022-09-02T22:56:58.535Z,12.07
2022-09-02T22:59:43.337Z,12.14
2022-09-02T23:02:21.764Z,12.16
2022-09-02T23:05:37.113Z,12.18
2022-09-02T23:08:10.749Z,12.24
2022-09-02T23:10:48.618Z,12.30
2022-09-02T23:13:32.414Z,12.38
2022-09-02T23:16:14.277Z,12.45
2022-09-02T23:18:55.042Z,12.50
2022-09-02T23:21:30.675Z,12.55
2022-09-02T23:24:13.401Z,12.60
2022-09-02T23:26:51.521Z,12.64
2022-09-02T23:29:24.301Z,12.69
2022-09-02T23:32:21.730Z,12.71
2022-09-02T23:35:16.686Z,12.74
2022-09-02T23:38:02.715Z,12.75
2022-09-02T23:40:40.144Z,12.76
2022-09-02T23:43:10.134Z,12.78
2022-09-02T23:45:39.960Z,12.79
2022-09-02T23:48:39.610Z,12.78
2022-09-02T23:51:19.410Z,12.77
2022-09-02T23:54:08.132Z,12.76
2022-09-02T23:56:56.008Z,12.80
2022-09-02T23:59:51.937Z,12.77
